Samut Prakan, Thailand
Current Conditions -  °F | °C
As of 1:00 AM on Tuesday 27 Jan 2015 (Local Time) from VTBS Reporting Station
Haze Haze  
Wind Chill: 25°   Ceiling: Unl
Heat Index: 26°   Visibility: 3mi
Dew Point: 22°   Wind: 5mph
Humidity: 83%   Direction: 200°SSW
Pressure: 29.91"   Gusts: NA
Location:  13.61°N, 100.61°E
Report Text: VTBS 261800Z 20004KT 5000 BR NSC 25/22 Q1013 NOSIG
Loading
Personal Weather Stations






























Interactive Weather Map New forecast layout! Learn more

10-Day Weather Forecast

Advertisements
Track Severe Weather on mobile